Time;durP1;ratioP1;P1;durP2;ratioP2;P2;SDS_P1;SDS_P2;PMS_P1;PMS_P2;Temp;Humidity;BMP_temperature;BMP_pressure;BME280_temperature;BME280_humidity;BME280_pressure;Samples;Min_cycle;Max_cycle;Signal;HPM_P1;HPM_P2
2023/11/19 00:03:39;;;;;;;37.03;8.80;;;;;;;13.11;100.00;100735.31;10374248;28;20036;-71
2023/11/19 00:08:39;;;;;;;29.10;8.43;;;;;;;13.11;100.00;100753.53;10371281;28;20033;-70
2023/11/19 00:13:40;;;;;;;38.33;12.02;;;;;;;13.12;100.00;100750.59;10373180;28;20044;-70
2023/11/19 00:18:41;;;;;;;20.70;8.32;;;;;;;13.10;100.00;100752.69;10371415;28;20097;-71
2023/11/19 00:23:42;;;;;;;27.15;8.68;;;;;;;13.04;100.00;100748.13;10387852;28;20029;-71
2023/11/19 00:28:43;;;;;;;26.88;9.52;;;;;;;12.90;100.00;100743.81;10372931;28;20393;-71
2023/11/19 00:33:44;;;;;;;24.67;8.38;;;;;;;12.84;100.00;100750.13;10370826;28;20412;-70
2023/11/19 00:38:45;;;;;;;45.38;11.25;;;;;;;12.83;100.00;100737.56;10370210;28;20034;-70
2023/11/19 00:43:45;;;;;;;37.42;10.70;;;;;;;12.81;100.00;100721.50;10371666;28;20038;-71
2023/11/19 00:48:47;;;;;;;36.65;9.52;;;;;;;12.89;100.00;100731.28;10370269;28;20549;-70
2023/11/19 00:53:48;;;;;;;43.45;11.70;;;;;;;12.87;100.00;100723.34;10372542;28;20580;-71
2023/11/19 00:58:49;;;;;;;25.85;9.02;;;;;;;12.84;100.00;100715.63;10353817;28;20074;-70
2023/11/19 01:03:49;;;;;;;27.05;9.25;;;;;;;12.78;100.00;100708.34;10370308;28;20057;-71
2023/11/19 01:08:50;;;;;;;36.85;11.55;;;;;;;12.64;100.00;100691.28;10368858;28;20053;-71
2023/11/19 01:13:51;;;;;;;37.88;12.02;;;;;;;12.53;100.00;100698.19;10336972;28;20092;-71
2023/11/19 01:18:52;;;;;;;34.47;9.20;;;;;;;12.49;100.00;100696.16;10353224;28;20532;-70
2023/11/19 01:23:54;;;;;;;24.23;10.40;;;;;;;12.37;100.00;100695.97;10369734;28;20045;-71
2023/11/19 01:28:54;;;;;;;33.70;9.93;;;;;;;12.22;100.00;100700.81;10352554;28;20038;-71
2023/11/19 01:33:54;;;;;;;33.22;11.02;;;;;;;12.13;100.00;100694.81;10368807;28;20097;-71
2023/11/19 01:38:55;;;;;;;29.52;11.40;;;;;;;12.07;100.00;100695.66;10370773;28;20188;-70
2023/11/19 01:43:55;;;;;;;39.85;12.52;;;;;;;12.03;100.00;100705.28;10385820;28;20171;-71
2023/11/19 01:48:56;;;;;;;27.08;10.52;;;;;;;11.96;100.00;100697.13;10369246;28;20354;-70
2023/11/19 01:53:57;;;;;;;42.25;12.02;;;;;;;11.89;100.00;100695.47;10375217;28;20036;-70
2023/11/19 01:58:58;;;;;;;33.88;12.40;;;;;;;11.88;100.00;100702.78;10360102;28;20082;-70
2023/11/19 02:03:58;;;;;;;40.70;12.02;;;;;;;11.86;100.00;100729.28;10376313;28;20025;-70
2023/11/19 02:08:58;;;;;;;31.73;11.45;;;;;;;11.82;100.00;100720.69;10376397;28;20030;-70
2023/11/19 02:13:59;;;;;;;29.30;10.43;;;;;;;11.89;100.00;100719.91;10378138;28;20041;-71
2023/11/19 02:19:01;;;;;;;53.05;12.65;;;;;;;11.80;100.00;100716.53;10378759;28;20068;-70
2023/11/19 02:24:04;;;;;;;47.83;12.25;;;;;;;11.75;100.00;100721.75;10375865;28;20041;-71
2023/11/19 02:29:06;;;;;;;35.42;11.00;;;;;;;11.71;100.00;100715.94;10343499;28;20084;-70
2023/11/19 02:34:09;;;;;;;31.35;11.70;;;;;;;11.59;100.00;100704.03;10376126;28;20103;-70
2023/11/19 02:39:12;;;;;;;28.83;12.38;;;;;;;11.55;100.00;100703.63;10359929;28;20358;-71
2023/11/19 02:44:13;;;;;;;43.15;11.43;;;;;;;11.55;100.00;100709.03;10377264;28;20033;-72
2023/11/19 02:49:15;;;;;;;39.65;12.07;;;;;;;11.48;100.00;100696.50;10361155;28;20104;-70
2023/11/19 02:54:15;;;;;;;38.85;11.50;;;;;;;11.49;100.00;100706.34;10374980;28;20040;-70
2023/11/19 02:59:27;;;;;;;27.00;9.65;;;;;;;11.39;100.00;100709.44;10357883;28;20053;-71
2023/11/19 03:04:28;;;;;;;64.30;12.32;;;;;;;11.40;100.00;100711.13;10374935;28;20048;-70
2023/11/19 03:09:29;;;;;;;42.58;11.27;;;;;;;11.37;100.00;100706.09;10358759;28;20140;-72
2023/11/19 03:14:29;;;;;;;40.83;13.10;;;;;;;11.38;100.00;100703.19;10374426;28;20042;-70
2023/11/19 03:19:30;;;;;;;50.80;11.38;;;;;;;11.35;100.00;100683.78;10373889;28;20054;-70
2023/11/19 03:24:30;;;;;;;65.95;12.35;;;;;;;11.34;100.00;100680.25;10373268;28;20082;-70
2023/11/19 03:29:31;;;;;;;58.25;14.00;;;;;;;11.33;100.00;100685.88;10375315;28;20422;-70
2023/11/19 03:34:31;;;;;;;38.45;11.63;;;;;;;11.28;100.00;100693.78;10374601;28;20422;-70
2023/11/19 03:39:32;;;;;;;41.35;10.73;;;;;;;11.27;100.00;100679.41;10357422;28;20069;-70
2023/11/19 03:44:33;;;;;;;42.58;11.00;;;;;;;11.26;100.00;100695.88;10374058;28;20038;-70
2023/11/19 03:49:33;;;;;;;39.88;12.38;;;;;;;11.21;100.00;100691.06;10374113;28;20507;-70
2023/11/19 03:54:35;;;;;;;43.72;13.50;;;;;;;11.14;100.00;100679.41;10371911;28;20036;-70
2023/11/19 03:59:35;;;;;;;51.58;14.45;;;;;;;11.16;100.00;100698.97;10374332;28;20476;-71
2023/11/19 04:04:37;;;;;;;45.25;12.77;;;;;;;11.12;100.00;100711.28;10374099;28;20034;-71
2023/11/19 04:09:37;;;;;;;44.35;13.43;;;;;;;11.13;100.00;100710.22;10373911;28;20163;-71
2023/11/19 04:14:38;;;;;;;51.65;12.50;;;;;;;11.15;100.00;100708.16;10372828;28;20129;-70
2023/11/19 04:19:41;;;;;;;49.60;10.80;;;;;;;11.14;100.00;100714.63;10387081;28;20042;-70
2023/11/19 04:24:43;;;;;;;45.40;12.52;;;;;;;11.11;100.00;100712.34;10371991;28;20368;-71
2023/11/19 04:29:45;;;;;;;37.97;12.27;;;;;;;11.17;100.00;100711.50;10372429;28;20078;-71
2023/11/19 04:34:46;;;;;;;28.92;9.27;;;;;;;11.11;100.00;100723.19;10373158;28;20410;-70
2023/11/19 04:39:46;;;;;;;28.77;10.07;;;;;;;11.14;100.00;100720.06;10371510;28;20026;-71
2023/11/19 04:44:47;;;;;;;53.70;9.63;;;;;;;11.10;100.00;100710.66;10373002;28;20115;-71
2023/11/19 04:49:48;;;;;;;44.33;10.23;;;;;;;11.01;100.00;100717.28;10374717;28;20053;-71
2023/11/19 04:54:48;;;;;;;35.60;13.38;;;;;;;11.01;100.00;100723.56;10356986;28;20045;-71
2023/11/19 04:59:50;;;;;;;43.38;11.93;;;;;;;11.00;100.00;100721.06;10373418;28;20136;-72
2023/11/19 05:04:51;;;;;;;32.38;9.55;;;;;;;10.99;100.00;100717.50;10371114;28;20104;-71
2023/11/19 05:09:51;;;;;;;33.95;11.45;;;;;;;10.92;100.00;100719.38;10371126;28;20053;-72
2023/11/19 05:14:51;;;;;;;45.13;12.75;;;;;;;11.03;100.00;100736.91;10371629;28;20030;-71
2023/11/19 05:19:52;;;;;;;52.97;13.00;;;;;;;10.98;100.00;100737.53;10371699;28;20022;-71
2023/11/19 05:24:52;;;;;;;45.17;12.10;;;;;;;10.96;100.00;100730.63;10369318;28;20460;-71
2023/11/19 05:29:54;;;;;;;35.42;12.50;;;;;;;10.98;100.00;100723.16;10378616;28;20049;-71
2023/11/19 05:34:57;;;;;;;31.13;12.38;;;;;;;10.89;100.00;100709.78;10395681;28;20056;-70
2023/11/19 05:39:59;;;;;;;27.25;9.20;;;;;;;10.91;100.00;100718.53;10393914;28;20121;-71
2023/11/19 05:45:00;;;;;;;33.47;11.25;;;;;;;10.92;100.00;100725.63;10379134;28;20514;-71
2023/11/19 05:50:00;;;;;;;40.13;11.82;;;;;;;10.98;100.00;100734.81;10361849;28;20092;-71
2023/11/19 05:55:04;;;;;;;57.00;12.80;;;;;;;10.91;100.00;100739.34;10361374;28;20030;-71
2023/11/19 06:00:13;;;;;;;41.08;12.85;;;;;;;10.84;100.00;100739.34;10377602;28;20153;-71
2023/11/19 06:05:14;;;;;;;52.10;12.90;;;;;;;10.90;100.00;100733.09;10362232;28;20033;-71
2023/11/19 06:10:16;;;;;;;29.73;9.73;;;;;;;10.88;100.00;100728.94;10377960;28;20120;-70
2023/11/19 06:15:17;;;;;;;35.97;9.82;;;;;;;10.77;100.00;100714.09;10377253;28;20037;-71
2023/11/19 06:20:19;;;;;;;38.67;10.18;;;;;;;10.90;100.00;100733.09;10376078;28;20038;-71
2023/11/19 06:25:20;;;;;;;28.75;10.57;;;;;;;10.87;100.00;100733.50;10376182;28;20056;-71
2023/11/19 06:30:20;;;;;;;33.55;12.30;;;;;;;10.88;100.00;100729.78;10376287;28;20077;-72
2023/11/19 06:35:22;;;;;;;33.72;9.07;;;;;;;10.92;100.00;100735.63;10376248;28;20135;-71
2023/11/19 06:40:22;;;;;;;32.70;11.27;;;;;;;10.92;100.00;100741.88;10375135;28;20022;-71
2023/11/19 06:45:23;;;;;;;38.90;12.27;;;;;;;10.86;100.00;100750.81;10376337;28;20117;-71
2023/11/19 06:50:23;;;;;;;30.02;11.35;;;;;;;10.99;100.00;100763.56;10375382;28;20030;-71
2023/11/19 06:55:24;;;;;;;41.05;11.00;;;;;;;11.27;100.00;100762.63;10375026;28;20496;-71
2023/11/19 07:00:24;;;;;;;51.45;11.23;;;;;;;11.42;100.00;100757.81;10374389;28;20052;-72
2023/11/19 07:05:26;;;;;;;30.52;9.85;;;;;;;11.44;100.00;100761.16;10373991;28;20042;-71
2023/11/19 07:10:27;;;;;;;34.50;11.68;;;;;;;11.49;100.00;100752.44;10374790;28;20025;-71
2023/11/19 07:15:28;;;;;;;25.75;10.43;;;;;;;11.42;100.00;100755.09;10358092;28;20064;-71
2023/11/19 07:20:28;;;;;;;46.55;9.93;;;;;;;11.32;100.00;100741.97;10375215;28;20038;-71
2023/11/19 07:25:30;;;;;;;60.47;10.02;;;;;;;11.31;100.00;100743.00;10357522;28;20437;-71
2023/11/19 07:30:31;;;;;;;66.68;14.40;;;;;;;11.25;100.00;100762.81;10373863;28;20042;-71
2023/11/19 07:35:32;;;;;;;39.60;9.85;;;;;;;11.30;100.00;100763.03;10374688;28;20041;-71
2023/11/19 07:40:32;;;;;;;37.13;10.90;;;;;;;11.38;100.00;100764.69;10373905;28;20541;-70
2023/11/19 07:45:34;;;;;;;40.58;13.15;;;;;;;11.51;100.00;100763.88;10372484;28;20050;-70
2023/11/19 07:50:34;;;;;;;22.75;8.90;;;;;;;11.66;100.00;100761.00;10375059;28;20084;-71
2023/11/19 07:55:35;;;;;;;32.72;9.60;;;;;;;11.76;100.00;100748.66;10340146;28;20038;-71
2023/11/19 08:00:35;;;;;;;28.20;8.77;;;;;;;11.78;100.00;100762.03;10372502;28;20034;-70
2023/11/19 08:05:36;;;;;;;36.92;11.48;;;;;;;11.98;100.00;100756.63;10371464;28;20103;-71
2023/11/19 08:10:36;;;;;;;45.03;12.63;;;;;;;12.09;100.00;100772.25;10356675;28;20053;-71
2023/11/19 08:15:37;;;;;;;48.17;11.93;;;;;;;12.28;100.00;100770.56;10373998;28;20041;-71
2023/11/19 08:20:37;;;;;;;42.03;8.82;;;;;;;12.55;100.00;100768.63;10370974;28;20143;-71
2023/11/19 08:25:38;;;;;;;41.38;9.90;;;;;;;13.09;100.00;100767.34;10356414;28;20355;-70
2023/11/19 08:30:39;;;;;;;34.55;9.63;;;;;;;13.23;100.00;100754.50;10373525;28;20030;-71
2023/11/19 08:35:39;;;;;;;41.80;10.52;;;;;;;13.65;100.00;100765.75;10372486;28;20034;-72
2023/11/19 08:40:40;;;;;;;49.33;10.00;;;;;;;13.85;100.00;100758.28;10373556;28;20116;-71
2023/11/19 08:45:40;;;;;;;26.80;11.07;;;;;;;13.58;100.00;100759.53;10371950;28;20109;-71
2023/11/19 08:50:41;;;;;;;44.33;11.02;;;;;;;13.41;100.00;100751.09;10355715;28;20163;-71
2023/11/19 08:55:41;;;;;;;36.10;11.82;;;;;;;13.47;100.00;100752.94;10355971;28;20465;-71
2023/11/19 09:00:42;;;;;;;29.52;12.25;;;;;;;13.40;100.00;100763.84;10372816;28;20487;-72
2023/11/19 09:05:42;;;;;;;36.95;10.55;;;;;;;13.42;100.00;100761.72;10354289;28;20042;-72
2023/11/19 09:10:43;;;;;;;34.83;13.00;;;;;;;13.31;100.00;100764.34;10373341;28;20057;-71
2023/11/19 09:15:43;;;;;;;36.42;11.73;;;;;;;13.60;100.00;100757.44;10337808;28;20042;-71
2023/11/19 09:20:45;;;;;;;40.88;9.25;;;;;;;13.75;100.00;100762.53;10372226;28;20088;-71
2023/11/19 09:25:45;;;;;;;43.60;10.20;;;;;;;13.66;100.00;100751.94;10371566;28;20033;-71
2023/11/19 09:30:46;;;;;;;34.78;10.48;;;;;;;14.54;100.00;100761.78;10371303;28;20060;-71
2023/11/19 09:35:46;;;;;;;28.38;8.93;;;;;;;15.39;100.00;100762.81;10369563;28;20078;-71
2023/11/19 09:40:47;;;;;;;18.63;7.57;;;;;;;15.23;100.00;100747.94;10353949;28;20033;-72
2023/11/19 09:45:49;;;;;;;16.25;7.82;;;;;;;14.17;100.00;100753.59;10370666;28;20121;-72
2023/11/19 09:50:50;;;;;;;33.95;8.02;;;;;;;13.74;100.00;100756.28;10370240;28;20200;-71
2023/11/19 09:55:50;;;;;;;22.27;7.70;;;;;;;13.72;100.00;100761.94;10368917;28;20179;-72
2023/11/19 10:00:51;;;;;;;23.98;9.32;;;;;;;13.91;100.00;100759.25;10353973;28;20057;-72
2023/11/19 10:05:53;;;;;;;23.50;7.47;;;;;;;14.68;100.00;100764.34;10351972;28;20390;-71
2023/11/19 10:10:54;;;;;;;23.42;9.02;;;;;;;15.33;100.00;100761.84;10337360;28;20122;-71
2023/11/19 10:15:55;;;;;;;24.48;8.77;;;;;;;15.67;100.00;100749.38;10375310;28;20494;-72
2023/11/19 10:20:56;;;;;;;23.40;8.10;;;;;;;15.90;100.00;100753.19;10375847;28;20455;-72
2023/11/19 10:26:05;;;;;;;22.80;7.13;;;;;;;15.88;100.00;100749.88;10343964;28;20112;-72
2023/11/19 10:31:05;;;;;;;31.48;8.63;;;;;;;15.86;100.00;100744.66;10359770;28;20026;-71
2023/11/19 10:36:07;;;;;;;24.92;9.23;;;;;;;16.04;100.00;100749.97;10375907;28;20030;-71
2023/11/19 10:41:07;;;;;;;23.42;7.93;;;;;;;16.03;100.00;100742.03;10376282;28;20037;-72
2023/11/19 10:46:12;;;;;;;32.38;7.57;;;;;;;16.01;100.00;100739.53;10375116;28;20060;-72
2023/11/19 10:51:14;;;;;;;24.60;6.90;;;;;;;15.70;100.00;100732.53;10359862;28;20025;-71
2023/11/19 10:56:16;;;;;;;15.70;7.50;;;;;;;15.64;100.00;100746.25;10358780;28;20089;-71
2023/11/19 11:01:25;;;;;;;25.23;9.23;;;;;;;15.78;100.00;100731.34;10359033;28;20053;-72
2023/11/19 11:06:27;;;;;;;30.52;10.35;;;;;;;15.36;100.00;100747.72;10374558;28;20025;-71
2023/11/19 11:11:28;;;;;;;29.00;8.43;;;;;;;15.17;100.00;100736.03;10373715;28;20504;-71
2023/11/19 11:16:29;;;;;;;42.47;10.07;;;;;;;15.25;100.00;100745.78;10373367;28;20046;-71
2023/11/19 11:21:31;;;;;;;37.70;11.65;;;;;;;15.34;100.00;100744.38;10373679;28;20034;-72
2023/11/19 11:27:00;;;;;;;24.70;8.77;;;;;;;16.29;100.00;100729.78;10373150;28;20326;-72
2023/11/19 11:32:21;;;;;;;35.60;7.68;;;;;;;16.54;100.00;100718.56;10321535;28;20493;-73
2023/11/19 11:37:45;;;;;;;35.38;6.25;;;;;;;16.58;100.00;100695.13;10342608;28;20038;-71
2023/11/19 11:42:45;;;;;;;11.95;5.55;;;;;;;16.06;100.00;100697.03;10359496;28;20112;-72
2023/11/19 11:47:55;;;;;;;22.33;7.15;;;;;;;16.23;100.00;100706.97;10356837;28;20453;-72
2023/11/19 11:52:58;;;;;;;26.23;7.18;;;;;;;16.49;100.00;100705.63;10373785;28;20053;-71
2023/11/19 11:57:59;;;;;;;25.30;8.35;;;;;;;16.42;100.00;100691.25;10372809;28;20080;-72
2023/11/19 12:03:00;;;;;;;10.32;5.13;;;;;;;15.98;100.00;100709.13;10372334;28;20097;-71
2023/11/19 12:08:01;;;;;;;14.35;5.88;;;;;;;15.22;100.00;100710.78;10355587;28;20037;-71
2023/11/19 12:13:01;;;;;;;19.52;7.05;;;;;;;14.81;100.00;100715.16;10355604;28;20087;-71
2023/11/19 12:18:02;;;;;;;18.88;7.90;;;;;;;14.62;100.00;100709.72;10371840;28;20030;-71
2023/11/19 12:23:05;;;;;;;28.85;8.48;;;;;;;14.63;100.00;100710.56;10371533;28;20041;-72
2023/11/19 12:28:05;;;;;;;25.85;7.78;;;;;;;14.60;100.00;100708.28;10371726;28;20124;-72
2023/11/19 12:33:10;;;;;;;34.88;7.82;;;;;;;14.33;100.00;100715.91;10353600;28;20065;-71
2023/11/19 12:38:23;;;;;;;33.92;8.98;;;;;;;14.25;100.00;100711.59;10370813;28;20052;-72
2023/11/19 12:43:23;;;;;;;31.15;10.35;;;;;;;14.10;100.00;100694.78;10353986;28;20040;-71
2023/11/19 12:48:24;;;;;;;32.22;8.32;;;;;;;14.24;100.00;100696.31;10370002;28;20108;-71
2023/11/19 12:53:25;;;;;;;38.78;10.60;;;;;;;14.13;100.00;100699.78;10354981;28;20152;-72
2023/11/19 12:58:33;;;;;;;27.02;10.07;;;;;;;14.08;100.00;100705.09;10370399;28;20403;-71
2023/11/19 13:03:34;;;;;;;26.83;10.07;;;;;;;14.03;100.00;100700.28;10337699;28;20038;-71
2023/11/19 13:08:38;;;;;;;24.83;9.63;;;;;;;14.04;100.00;100703.84;10353363;28;20026;-71
2023/11/19 13:13:58;;;;;;;27.80;9.32;;;;;;;13.81;100.00;100691.72;10370765;28;20030;-71
2023/11/19 13:18:59;;;;;;;26.48;10.20;;;;;;;13.73;100.00;100700.19;10371713;28;20033;-72
2023/11/19 13:24:00;;;;;;;45.05;11.43;;;;;;;13.64;100.00;100677.84;10373242;28;20034;-71
2023/11/19 13:29:00;;;;;;;22.50;8.07;;;;;;;13.58;100.00;100686.91;10369270;28;20038;-72
2023/11/19 13:34:01;;;;;;;30.33;8.65;;;;;;;13.57;100.00;100673.53;10370436;28;20034;-72
2023/11/19 13:39:01;;;;;;;21.25;8.43;;;;;;;13.48;100.00;100679.25;10371050;28;20305;-72
2023/11/19 13:44:02;;;;;;;23.80;9.10;;;;;;;13.22;100.00;100671.28;10372265;28;20026;-72
2023/11/19 13:49:03;;;;;;;21.73;10.00;;;;;;;13.11;100.00;100669.25;10374628;28;20405;-72
2023/11/19 13:54:03;;;;;;;32.55;8.65;;;;;;;13.02;100.00;100668.69;10377170;28;20120;-72
2023/11/19 13:59:04;;;;;;;47.67;11.20;;;;;;;13.00;100.00;100662.66;10377218;28;20049;-71
2023/11/19 14:04:05;;;;;;;36.20;9.63;;;;;;;13.04;100.00;100669.28;10377969;28;20100;-72
2023/11/19 14:09:09;;;;;;;28.02;9.07;;;;;;;13.07;100.00;100666.13;10376642;28;20087;-72
2023/11/19 14:14:10;;;;;;;30.30;9.00;;;;;;;13.17;100.00;100661.03;10378104;28;20326;-72
2023/11/19 14:19:10;;;;;;;32.80;11.80;;;;;;;13.21;100.00;100661.47;10359981;28;20041;-71
2023/11/19 14:24:10;;;;;;;29.90;7.97;;;;;;;13.31;100.00;100663.72;10377171;28;20117;-72
2023/11/19 14:29:11;;;;;;;21.60;8.40;;;;;;;13.41;100.00;100658.59;10360616;28;20045;-72
2023/11/19 14:34:12;;;;;;;20.75;8.15;;;;;;;13.46;100.00;100656.03;10375525;28;20045;-72
2023/11/19 14:39:12;;;;;;;49.28;9.43;;;;;;;13.48;100.00;100645.78;10375967;28;20107;-72
2023/11/19 14:44:13;;;;;;;23.45;9.38;;;;;;;13.39;100.00;100647.94;10358434;28;20362;-72
2023/11/19 14:49:14;;;;;;;26.02;9.00;;;;;;;13.26;100.00;100635.28;10375104;28;20042;-72
2023/11/19 14:54:15;;;;;;;23.17;8.48;;;;;;;13.35;100.00;100640.47;10375212;28;20105;-71
2023/11/19 14:59:16;;;;;;;19.70;8.40;;;;;;;13.32;100.00;100635.47;10375504;28;20409;-74
2023/11/19 15:04:16;;;;;;;35.45;9.45;;;;;;;13.30;100.00;100638.38;10374384;28;20097;-71
2023/11/19 15:09:18;;;;;;;45.53;10.27;;;;;;;13.20;100.00;100635.31;10374287;28;20470;-72
2023/11/19 15:14:19;;;;;;;24.73;9.13;;;;;;;12.99;100.00;100626.47;10374228;28;20053;-72
2023/11/19 15:19:20;;;;;;;24.80;10.15;;;;;;;12.96;100.00;100624.19;10374904;28;20444;-72
2023/11/19 15:24:21;;;;;;;34.10;12.02;;;;;;;12.89;100.00;100611.69;10375210;28;20037;-72
2023/11/19 15:29:22;;;;;;;42.63;11.30;;;;;;;12.87;100.00;100625.50;10373480;28;20415;-72
2023/11/19 15:34:23;;;;;;;27.80;8.45;;;;;;;12.76;100.00;100607.19;10373990;28;20037;-71
2023/11/19 15:39:23;;;;;;;20.98;6.18;;;;;;;12.73;100.00;100613.03;10372886;28;20033;-71
2023/11/19 15:44:24;;;;;;;39.92;9.27;;;;;;;12.50;100.00;100611.72;10355583;28;20416;-71
2023/11/19 15:49:24;;;;;;;31.75;8.65;;;;;;;12.49;100.00;100611.94;10372022;28;20069;-72
2023/11/19 15:54:26;;;;;;;26.20;7.82;;;;;;;12.31;100.00;100615.38;10372547;28;20034;-72
2023/11/19 15:59:26;;;;;;;30.38;9.38;;;;;;;12.12;100.00;100602.72;10371879;28;20053;-71
2023/11/19 16:04:27;;;;;;;28.23;9.50;;;;;;;11.89;100.00;100605.94;10371948;28;20084;-71
2023/11/19 16:09:28;;;;;;;36.25;11.10;;;;;;;11.79;100.00;100607.19;10354877;28;20045;-71
2023/11/19 16:14:28;;;;;;;29.92;8.00;;;;;;;11.76;100.00;100595.91;10370759;28;20041;-70
2023/11/19 16:19:30;;;;;;;35.63;10.30;;;;;;;11.74;100.00;100612.44;10355239;28;20445;-70
2023/11/19 16:24:30;;;;;;;23.40;8.35;;;;;;;11.75;100.00;100607.81;10370340;28;20085;-72
2023/11/19 16:29:31;;;;;;;42.55;10.27;;;;;;;11.76;100.00;100613.03;10355431;28;20037;-71
2023/11/19 16:34:33;;;;;;;34.60;10.68;;;;;;;11.74;100.00;100601.56;10371329;28;20444;-70
2023/11/19 16:39:34;;;;;;;47.58;12.25;;;;;;;11.75;100.00;100602.41;10369777;28;20472;-70
2023/11/19 16:44:34;;;;;;;25.55;11.00;;;;;;;11.71;100.00;100603.84;10353777;28;20128;-70
2023/11/19 16:49:35;;;;;;;25.20;8.90;;;;;;;11.71;100.00;100604.72;10369753;28;20096;-72
2023/11/19 16:54:35;;;;;;;0.60;0.60;;;;;;;11.69;100.00;100611.38;10370009;28;20042;-71
2023/11/19 16:59:35;;;;;;;2.33;2.10;;;;;;;11.74;100.00;100589.88;10352542;28;20069;-72
2023/11/19 17:04:36;;;;;;;1.05;1.05;;;;;;;11.63;100.00;100600.31;10370003;28;20120;-71
2023/11/19 17:09:36;;;;;;;12.25;6.18;;;;;;;11.65;100.00;100600.13;10371227;28;20034;-71
2023/11/19 17:14:38;;;;;;;1.45;1.45;;;;;;;11.64;100.00;100593.03;10370180;28;20092;-72
2023/11/19 17:19:41;;;;;;;0.63;0.63;;;;;;;11.62;100.00;100584.28;10368728;28;20048;-71
2023/11/19 17:24:42;;;;;;;3.88;3.60;;;;;;;11.62;100.00;100592.41;10393579;28;20040;-70
2023/11/19 17:29:42;;;;;;;1.63;1.63;;;;;;;11.59;100.00;100580.09;10377507;28;20125;-71
2023/11/19 17:34:42;;;;;;;4.63;4.20;;;;;;;11.62;100.00;100568.00;10360687;28;20441;-70
2023/11/19 17:39:46;;;;;;;3.92;1.27;;;;;;;11.65;100.00;100578.44;10360443;28;20129;-70
2023/11/19 17:44:46;;;;;;;5.57;1.58;;;;;;;11.72;100.00;100576.53;10376760;28;20373;-70
2023/11/19 17:49:47;;;;;;;2.65;2.50;;;;;;;11.74;100.00;100584.44;10376019;28;20034;-71
2023/11/19 17:54:47;;;;;;;0.63;0.63;;;;;;;11.78;100.00;100589.25;10360145;28;20074;-70
2023/11/19 17:59:49;;;;;;;0.57;0.57;;;;;;;11.84;100.00;100588.41;10376045;28;20084;-70
2023/11/19 18:04:50;;;;;;;1.17;1.17;;;;;;;11.90;100.00;100586.75;10377397;28;20034;-70
2023/11/19 18:09:50;;;;;;;2.17;1.40;;;;;;;11.92;100.00;100579.19;10376014;28;20034;-70
2023/11/19 18:14:50;;;;;;;9.77;3.40;;;;;;;11.98;100.00;100588.38;10359417;28;20080;-73
2023/11/19 18:19:51;;;;;;;0.43;0.43;;;;;;;12.00;100.00;100589.84;10358956;28;20366;-72
2023/11/19 18:24:52;;;;;;;1.25;1.25;;;;;;;12.01;100.00;100590.66;10378107;28;20076;-70
2023/11/19 18:29:53;;;;;;;2.08;1.98;;;;;;;12.09;100.00;100599.41;10376683;28;20033;-70
2023/11/19 18:34:53;;;;;;;11.60;3.75;;;;;;;12.09;100.00;100590.41;10376103;28;20041;-71
2023/11/19 18:39:54;;;;;;;0.50;0.50;;;;;;;12.05;100.00;100594.59;10374344;28;20030;-71
2023/11/19 18:44:55;;;;;;;1.60;1.50;;;;;;;12.09;100.00;100593.13;10373909;28;20077;-70
2023/11/19 18:49:55;;;;;;;0.47;0.47;;;;;;;12.14;100.00;100597.91;10376362;28;20120;-70
2023/11/19 18:54:56;;;;;;;2.38;1.33;;;;;;;12.14;100.00;100595.19;10375477;28;20477;-70
2023/11/19 18:59:56;;;;;;;7.43;3.20;;;;;;;12.16;100.00;100596.66;10373274;28;20050;-70
2023/11/19 19:04:57;;;;;;;0.77;0.77;;;;;;;12.14;100.00;100592.50;10375551;28;20038;-70
2023/11/19 19:10:01;;;;;;;22.80;8.15;;;;;;;12.18;100.00;100594.53;10375374;28;20065;-70
2023/11/19 19:15:02;;;;;;;44.50;12.63;;;;;;;12.21;100.00;100582.44;10375197;28;20038;-69
2023/11/19 19:20:03;;;;;;;45.83;11.27;;;;;;;12.29;100.00;100591.16;10357072;28;20121;-70
2023/11/19 19:25:04;;;;;;;33.58;9.38;;;;;;;12.34;100.00;100598.66;10341014;28;20069;-70
2023/11/19 19:30:08;;;;;;;41.92;11.57;;;;;;;12.36;100.00;100590.31;10372576;28;20044;-70
2023/11/19 19:35:08;;;;;;;27.83;8.30;;;;;;;12.36;100.00;100595.72;10374320;28;20041;-70
2023/11/19 19:40:12;;;;;;;27.98;7.95;;;;;;;12.37;100.00;100581.09;10341079;28;20296;-70
2023/11/19 19:45:13;;;;;;;33.80;9.27;;;;;;;12.43;100.00;100596.53;10372733;28;20034;-70
2023/11/19 19:50:13;;;;;;;33.47;7.90;;;;;;;12.40;100.00;100596.94;10372526;28;20139;-70
2023/11/19 19:55:16;;;;;;;27.90;10.48;;;;;;;12.41;100.00;100604.03;10371769;28;20046;-70
2023/11/19 20:00:17;;;;;;;14.25;7.65;;;;;;;12.45;100.00;100600.69;10355750;28;20050;-70
2023/11/19 20:05:19;;;;;;;43.95;9.43;;;;;;;12.45;100.00;100600.69;10372054;28;20083;-69
2023/11/19 20:10:19;;;;;;;13.32;6.47;;;;;;;12.43;100.00;100597.34;10371922;28;20481;-70
2023/11/19 20:15:20;;;;;;;23.60;8.90;;;;;;;12.51;100.00;100609.88;10371340;28;20073;-69
2023/11/19 20:20:20;;;;;;;14.43;4.28;;;;;;;12.41;100.00;100614.91;10353988;28;20030;-69
2023/11/19 20:25:22;;;;;;;33.50;9.68;;;;;;;12.49;100.00;100622.81;10370852;28;20044;-70
2023/11/19 20:30:23;;;;;;;21.50;7.45;;;;;;;12.54;100.00;100614.88;10354331;28;20180;-70
2023/11/19 20:35:23;;;;;;;20.58;7.22;;;;;;;12.56;100.00;100629.03;10354304;28;20179;-69
2023/11/19 20:40:26;;;;;;;21.23;7.22;;;;;;;12.64;100.00;100628.81;10369601;28;20049;-70
2023/11/19 20:45:27;;;;;;;20.88;6.28;;;;;;;12.64;100.00;100631.50;10370593;28;20393;-70
2023/11/19 20:50:30;;;;;;;17.00;5.85;;;;;;;12.64;100.00;100636.94;10371625;28;20026;-69
2023/11/19 20:55:30;;;;;;;23.45;6.47;;;;;;;12.62;100.00;100644.47;10387145;28;20042;-69
2023/11/19 21:00:30;;;;;;;27.23;7.70;;;;;;;12.57;100.00;100650.56;10369977;28;20081;-69
2023/11/19 21:05:32;;;;;;;26.05;6.50;;;;;;;12.57;100.00;100644.28;10370696;28;20049;-69
2023/11/19 21:10:32;;;;;;;21.98;5.60;;;;;;;12.48;100.00;100634.75;10370286;28;20153;-69
2023/11/19 21:15:33;;;;;;;18.17;5.45;;;;;;;12.53;100.00;100645.78;10370431;28;20061;-69
2023/11/19 21:20:33;;;;;;;9.38;5.20;;;;;;;12.57;100.00;100657.84;10336999;28;20041;-69
2023/11/19 21:25:35;;;;;;;27.33;6.43;;;;;;;12.65;100.00;100657.63;10370460;28;20038;-69
2023/11/19 21:30:35;;;;;;;22.60;4.95;;;;;;;12.66;100.00;100666.59;10370813;28;20034;-69
2023/11/19 21:35:37;;;;;;;19.70;5.85;;;;;;;12.71;100.00;100664.91;10370660;28;20046;-70
2023/11/19 21:40:37;;;;;;;13.18;4.30;;;;;;;12.72;100.00;100661.13;10370836;28;20116;-70
2023/11/19 21:45:39;;;;;;;12.02;5.63;;;;;;;12.68;100.00;100665.34;10369823;28;20437;-69
2023/11/19 21:50:41;;;;;;;10.02;4.78;;;;;;;12.68;100.00;100656.34;10371271;28;20118;-70
2023/11/19 21:55:42;;;;;;;25.13;6.15;;;;;;;12.69;100.00;100656.13;10353347;28;20137;-70
2023/11/19 22:00:43;;;;;;;20.88;4.45;;;;;;;12.66;100.00;100669.31;10352271;28;20156;-70
2023/11/19 22:05:43;;;;;;;10.32;3.25;;;;;;;12.70;100.00;100673.25;10352737;28;20126;-70
2023/11/19 22:10:44;;;;;;;22.05;4.35;;;;;;;12.71;100.00;100664.06;10376045;28;20474;-70
2023/11/19 22:15:44;;;;;;;8.10;4.30;;;;;;;12.65;100.00;100665.78;10360792;28;20046;-70
2023/11/19 22:20:45;;;;;;;9.40;5.10;;;;;;;12.68;100.00;100669.94;10343162;28;20038;-69
2023/11/19 22:25:45;;;;;;;11.30;5.10;;;;;;;12.62;100.00;100670.81;10375413;28;20037;-69
2023/11/19 22:30:46;;;;;;;13.18;3.95;;;;;;;12.61;100.00;100669.16;10360285;28;20061;-70